Aviation Digital Data Service (ADDS)

Output produced by METARs form (1115 UTC 24 April 2017)
found at http://www.aviationweather.gov/adds/metars/
 
UNAA 241100Z 18003MPS CAVOK 20/M01 Q1016 R20/090065 NOSIG RMK QFE740
TAF UNAA 240800Z 2409/2509 33003G10MPS 9999 SCT040 
     BECMG 2418/2420 SCT025CB 
     TEMPO 2420/2509 3000 -SHRA
       
URWA 241100Z 27013G18MPS 9999 SCT049 15/02 Q1008 R27/010070 TEMPO 27020G25MPS RMK QFE758/1011
TAF URWA 241100Z 2412/2421 26012G17MPS 9999 SCT015CB BKN020 
     BECMG 2417/2419 29005G10MPS
       
USCC 241100Z 11004MPS 9999 -RA SCT040 10/06 Q1013 R09/000060 NOSIG RMK QFE739
TAF USCC 240800Z 2409/2509 16007MPS 5000 BR BKN010 
     TEMPO 2409/2418 15010MPS 2100 -RA VV005
       
UNBB 241100Z 27004MPS 9000 -SHRA SCT009 BKN030CB 10/04 Q1019 R24/190059 NOSIG RMK QFE742
TAF UNBB 240800Z 2409/2509 26009G14MPS 9999 BKN020 
     TEMPO 2409/2413 3000 -SHRA SCT005 BKN010CB 
     TEMPO 2413/2509 VRB01MPS 1200 SHRA BR SCT002 BKN005CB
       
UWKE 241100Z 07008MPS 8000 -RA BKN003 05/05 Q1003 R03/210355 NOSIG RMK OBST OBSC QFE735/0980
TAF UWKE 240745Z 2409/2509 09006G12MPS 2100 -RA BR OVC005 
     TEMPO 2409/2421 05009G14MPS 0700 +SHRA FG BKN002 BKN020CB 
     BECMG 2421/2422 23006G12MPS BKN010 
     TEMPO 2422/2509 27009G14MPS 1000 -SHRASN BKN003 BKN015CB
       
UUOB 241100Z 31006MPS CAVOK 10/M04 Q1008 R29/090060 NOSIG
TAF AMD UUOB 241100Z 2412/2421 31006G11MPS 9999 BKN040
       
URMO 241030Z 05007MPS 9999 BKN029 15/M02 Q1012 R09/010070 NOSIG RMK QFE715/0954
TAF URMO 241100Z 2412/2421 33007MPS 9999 BKN020 
     TEMPO 2412/2418 30007G12MPS 3000 -SHRA SCT007 BKN020CB
       
TAF ULPB 240759Z 2409/2418 10003G08MPS 6000 BKN015 BKN025 
     TEMPO 2409/2418 VRB01MPS 1200 -SHRASN BR BKN005 BKN015CB
       
USPP 241100Z 14004MPS 9999 SCT025 10/04 Q1008 R21/090060 NOSIG RMK QFE746
TAF USPP 240758Z 2409/2509 15004MPS 9999 SCT040 BKN100 
     TEMPO 2409/2412 14009MPS 
     FM241200 09007MPS 3100 -RA BKN007 OVC070 
     BECMG 2504/2506 BKN020 OVC100
       
UIBB 241100Z 11004MPS 080V170 9999 NSC 10/M15 Q1024 R30/60D NOSIG RMK QFE724/0966
TAF UIBB 240800Z 2409/2509 12003MPS 9999 NSC
       
UUBP 241100Z 28004MPS 9999 SCT033CB 09/M06 Q1008 R34/////// NOSIG RMK QFE739/0985
TAF UUBP 241052Z 2412/2421 29006G11MPS 9999 BKN030 BKN035CB 
     TEMPO 2412/2416 -SHRA BKN030CB 
     BECMG 2415/2416 25006MPS
       
UWKS 241100Z 07003MPS 9999 BKN047 07/M02 Q1003 R06/010060 NOSIG RMK QFE737
TAF UWKS 241057Z 2412/2421 01003G09MPS 4000 -SHRA BKN011 BKN015CB 
     TEMPO 2413/2421 34005G11MPS BKN007 BKN015CB
       
UUOO 241100Z 33005MPS CAVOK 11/M07 Q1006 R30/090057 NOSIG RMK QFE741
TAF UUOO 241100Z 2412/2421 32009MPS 9999 BKN020CB
       
UEEE 241100Z 28001MPS CAVOK 05/M05 Q1023 R23L/09//60 NOSIG RMK QFE758
TAF UEEE 240800Z 2409/2515 30003G08MPS 9999 SCT030CB BKN070 
     TEMPO 2509/2515 3200 -SHRASN SCT007 BKN020CB OVC070
       
UUDD 241100Z 14003MPS 9999 BKN033CB 06/M00 Q1007 R88/290095 NOSIG
TAF UUDD 240758Z 2409/2515 29005MPS 9999 BKN020 TX11/2512Z TNM01/2503Z 
     TEMPO 2409/2418 33010MPS 2500 -SHRA SCT007 BKN020CB 
     PROB40 
     TEMPO 2409/2418 -TSRA BKN020CB 
     PROB40 
     TEMPO 2418/2505 0300 FZFG SCT003 
     BECMG 2504/2506 23006MPS
       
URWW 241100Z 31013MPS 9999 BKN027 09/04 Q1005 R24/010070 NOSIG
TAF URWW 241100Z 2412/2421 27009G14MPS 9999 BKN011 SCT020CB BKN100 
     TEMPO 2412/2421 30011G17MPS 3100 -SHRA
       
UHBB 241100Z 02003MPS 9999 BKN026CB 03/03 Q1013 R36/090060 NOSIG RMK QFE742/0990
TAF UHBB 240750Z 2409/2509 02006MPS 9999 BKN020CB 
     TEMPO 2409/2412 2100 -SHRA BKN015CB 
     FM241200 01003MPS 2100 -SHRA BR BKN007 BKN015CB 
     BECMG 2500/2502 36006MPS
       
UIII 241100Z 07002MPS CAVOK 11/M15 Q1023 R30/60D NOSIG RMK QFE723/0964
TAF UIII 240800Z 2409/2509 VRB01MPS CAVOK
       
UIAA 241100Z 36005MPS 9999 FEW043CB 08/M08 Q1019 R29/70D NOSIG RMK QFE706
TAF UIAA 240800Z 2409/2509 36005G11MPS 9999 SCT033CB 
     TEMPO 2409/2415 35008G16MPS
       
UWKD 241100Z 04007G12MPS 9000 -SHRA BKN014CB 05/03 Q1001 R11/2/0050 NOSIG RMK QFE741/0988
TAF UWKD 240759Z 2409/2509 06007G12MPS 3000 -RA BR OVC010 TX06/2409Z TN02/2502Z 
     TEMPO 2409/2412 1000 SHRA BKN004 BKN013CB 
     TEMPO 2412/2418 02007G12MPS 0700 SHRA FG OVC003 BKN012CB 
     BECMG 2418/2419 32007G12MPS 
     TEMPO 2419/2503 27007G12MPS 1000 SHRASN BR BKN004 BKN013CB
       
UNEE 241100Z 24007MPS CAVOK 13/01 Q1016 R23/CLRD60 NOSIG RMK QFE739
TAF UNEE 240800Z 2409/2509 24009G16MPS 9999 SCT020CB 
     TEMPO 2412/2415 3100 -SHRA BKN010CB 
     FM241800 30003MPS 5000 BR SCT030
       
USCC 241100Z 11004MPS 9999 -RA SCT040 10/06 Q1013 R09/000060 NOSIG RMK QFE739
TAF USCC 240800Z 2409/2509 16007MPS 5000 BR BKN010 
     TEMPO 2409/2418 15010MPS 2100 -RA VV005
       
USCM 241100Z 18011MPS 9999 BKN040 15/04 Q1008 R19/090060 TEMPO 17017MPS RMK QFE719
TAF USCM 241100Z 2412/2421 18009MPS 3000 BR BKN010 
     TEMPO 2412/2418 17015MPS 2100 -RA VV005
       
USHH 241100Z 25006MPS CAVOK 10/M01 Q1012 R24/010060 NOSIG RMK QFE755
TAF AMD USHH 240940Z 2410/2509 27005G11MPS 9999 BKN015 
     TEMPO 2410/2412 3000 -SHRA BKN010CB 
     BECMG 2420/2421 15006MPS 
     TEMPO 2421/2509 2100 -SHRA BR OVC005CB
       
USNN 241100Z 23002MPS CAVOK 11/M00 Q1012 R21/0///65 NOSIG RMK QFE754
TAF USNN 240800Z 2409/2509 23003MPS 9999 SCT020 
     TEMPO 2409/2415 20003MPS
       
USPP 241100Z 14004MPS 9999 SCT025 10/04 Q1008 R21/090060 NOSIG RMK QFE746
TAF USPP 240758Z 2409/2509 15004MPS 9999 SCT040 BKN100 
     TEMPO 2409/2412 14009MPS 
     FM241200 09007MPS 3100 -RA BKN007 OVC070 
     BECMG 2504/2506 BKN020 OVC100
       
USRR 241100Z 23003MPS 7000 NSC 08/M02 Q1012 R25/CLRD60 NOSIG RMK QFE753
TAF AMD USRR 240950Z 2410/2509 23003MPS 9999 SCT020 
     TEMPO 2410/2418 23005G10MPS 4000 -SHRA SCT007 BKN015CB
       
USSS 241100Z 12004MPS 9000 -SHRA BKN032CB 06/05 Q1013 R08L/290037 NOSIG RMK QFE740/0986
TAF USSS 240759Z 2409/2509 15006MPS 5000 -SHRA BKN011 SCT020CB 
     TEMPO 2409/2421 16013MPS
       
USTR 241100Z 25006MPS CAVOK 14/M04 Q1015 R21/CLRD65 NOSIG RMK QFE752/1003
TAF USTR 240752Z 2409/2509 24005G10MPS 9999 SCT020CB 
     BECMG 2411/2412 19005G10MPS 
     FM241500 16005G10MPS 9999 BKN011 BKN015CB 
     TEMPO 2415/2509 18012MPS 3100 -SHRA
       
UHSS 241100Z 14002MPS 9999 BKN036 02/M02 Q1024 R19/CLRD70 NOSIG RMK QFE767/1022
TAF UHSS 240800Z 2409/2515 19005MPS 9999 SCT030CB 
     FM241100 15003MPS 4000 BR BKN008 BKN020CB 
     TEMPO 2412/2423 0500 FZFG VV002 
     BECMG 2423/2424 9999 NSW SCT030CB 
     BECMG 2503/2505 13005MPS 
     BECMG 2507/2509 5000 -SHRA BKN008 BKN020CB
       
UMKK 241100Z 28005MPS 230V330 9999 SCT027 09/M01 Q1012 R24/19//60 NOSIG RMK QFE758/1011
TAF UMKK 240803Z 2409/2509 26005G10MPS 9999 SCT010 BKN020 
     TEMPO 2409/2415 22007G12MPS BKN005 SCT015CB 
     FM241500 20008MPS 4000 -RADZ BR SCT005 OVC010 
     TEMPO 2415/2502 24007G13MPS 2100 -SHRA BR BKN004 BKN015CB 
     BECMG 2502/2504 21003G08MPS OVC007
       
UHWW 241100Z 07002MPS 6000 SCT026CB 07/06 Q1014 R25L/0///70 NOSIG RMK QFE759
TAF UHWW 240755Z 2409/2509 VRB01MPS 2100 -SHRA BR BKN007 BKN010CB 
     TEMPO 2409/2411 0300 FG VV002 
     BECMG 2411/2414 0300 FG VV002 
     FM242300 24003MPS 2500 -SHRA BKN013CB 
     BECMG 2502/2505 5000 -SHRA BKN017CB
       
USSS 241100Z 12004MPS 9000 -SHRA BKN032CB 06/05 Q1013 R08L/290037 NOSIG RMK QFE740/0986
TAF USSS 240759Z 2409/2509 15006MPS 5000 -SHRA BKN011 SCT020CB 
     TEMPO 2409/2421 16013MPS
       
UNKL 241100Z 20004MPS 170V250 CAVOK 17/00 Q1017 R29/CLRD65 NOSIG RMK QFE737
TAF UNKL 240759Z 2409/2509 14003MPS 9999 SCT020CB 
     BECMG 2412/2414 5000 BR 
     TEMPO 2415/2501 1000 SHRA BR SCT004 BKN015CB
       
UUOK 241100Z 33007MPS 310V030 9999 SCT033 10/M05 Q1008 R30/CLRD65 NOSIG RMK QFE738/0984
TAF UUOK 241058Z 2412/2421 31006G11MPS 9999 BKN020 
     TEMPO 2417/2421 27007MPS
       
UWWW 241100Z 11006MPS 9000 -RA BKN023 09/08 Q0995 R05/290345 NOSIG RMK QFE733/0978
TAF AMD UWWW 241019Z 2410/2509 09003G09MPS 3100 -RA BR OVC011 TX09/2411Z TN04/2501Z 
     TEMPO 2410/2416 08006G14MPS 0500 +SHRA FG OVC002 BKN011CB 
     FM241600 28006G13MPS 3100 -RA BR BKN011 BKN100 
     TEMPO 2416/2509 27003G09MPS 1000 SHRA BR SCT004 BKN012CB
       
USCM 241100Z 18011MPS 9999 BKN040 15/04 Q1008 R19/090060 TEMPO 17017MPS RMK QFE719
TAF USCM 241100Z 2412/2421 18009MPS 3000 BR BKN010 
     TEMPO 2412/2418 17015MPS 2100 -RA VV005
       
URMM 241100Z 31005MPS 9999 NSC 17/M02 Q1011 R30/000070 NOSIG RMK QFE730/0973
TAF AMD URMM 240837Z 2409/2509 30006G12MPS 9999 SCT030 TX16/2412Z TN02/2503Z 
     TEMPO 2409/2413 28010G17MPS 
     TEMPO 2413/2506 29003G08MPS 3100 -SHRA BKN011 BKN020CB
       
USCC 241100Z 11004MPS 9999 -RA SCT040 10/06 Q1013 R09/000060 NOSIG RMK QFE739
TAF USCC 240800Z 2409/2509 16007MPS 5000 BR BKN010 
     TEMPO 2409/2418 15010MPS 2100 -RA VV005
       
USCM 241100Z 18011MPS 9999 BKN040 15/04 Q1008 R19/090060 TEMPO 17017MPS RMK QFE719
TAF USCM 241100Z 2412/2421 18009MPS 3000 BR BKN010 
     TEMPO 2412/2418 17015MPS 2100 -RA VV005
       
USHH 241100Z 25006MPS CAVOK 10/M01 Q1012 R24/010060 NOSIG RMK QFE755
TAF AMD USHH 240940Z 2410/2509 27005G11MPS 9999 BKN015 
     TEMPO 2410/2412 3000 -SHRA BKN010CB 
     BECMG 2420/2421 15006MPS 
     TEMPO 2421/2509 2100 -SHRA BR OVC005CB
       
USNN 241100Z 23002MPS CAVOK 11/M00 Q1012 R21/0///65 NOSIG RMK QFE754
TAF USNN 240800Z 2409/2509 23003MPS 9999 SCT020 
     TEMPO 2409/2415 20003MPS
       
USPP 241100Z 14004MPS 9999 SCT025 10/04 Q1008 R21/090060 NOSIG RMK QFE746
TAF USPP 240758Z 2409/2509 15004MPS 9999 SCT040 BKN100 
     TEMPO 2409/2412 14009MPS 
     FM241200 09007MPS 3100 -RA BKN007 OVC070 
     BECMG 2504/2506 BKN020 OVC100
       
USRR 241100Z 23003MPS 7000 NSC 08/M02 Q1012 R25/CLRD60 NOSIG RMK QFE753
TAF AMD USRR 240950Z 2410/2509 23003MPS 9999 SCT020 
     TEMPO 2410/2418 23005G10MPS 4000 -SHRA SCT007 BKN015CB
       
USSS 241100Z 12004MPS 9000 -SHRA BKN032CB 06/05 Q1013 R08L/290037 NOSIG RMK QFE740/0986
TAF USSS 240759Z 2409/2509 15006MPS 5000 -SHRA BKN011 SCT020CB 
     TEMPO 2409/2421 16013MPS
       
USTR 241100Z 25006MPS CAVOK 14/M04 Q1015 R21/CLRD65 NOSIG RMK QFE752/1003
TAF USTR 240752Z 2409/2509 24005G10MPS 9999 SCT020CB 
     BECMG 2411/2412 19005G10MPS 
     FM241500 16005G10MPS 9999 BKN011 BKN015CB 
     TEMPO 2415/2509 18012MPS 3100 -SHRA
       
UIUU 241100Z 32005MPS 9999 NSC 09/M11 Q1023 R26/CLRD60 NOSIG RMK QFE723/0964
TAF UIUU 240800Z 2409/2509 33006MPS 9999 NSC 
     TEMPO 2409/2418 26003G08MPS
       
ULMM 241100Z 11001MPS 9000 1700SE R31/1700U SHSN BKN020CB M00/M05 Q1010 R31/190060 NOSIG RMK QFE750
TAF ULMM 240750Z 2409/2509 15003MPS 9999 BKN014 
     TEMPO 2409/2418 20004MPS 3000 -SHSN BKN014CB 
     TEMPO 2418/2509 20003MPS 1000 -SHSN BR BKN005 BKN014CB
       
URMN 241100Z 32001MPS 9999 SCT///CB BKN/// 16/M03 Q1010 R24/010070 NOSIG RMK QFE721
TAF URMN 241100Z 2412/2421 08003G08MPS 9999 BKN020CB 
     TEMPO 2412/2418 VRB09G14MPS 3000 -TSRA BR BKN005 BKN015CB
       
USNN 241100Z 23002MPS CAVOK 11/M00 Q1012 R21/0///65 NOSIG RMK QFE754
TAF USNN 240800Z 2409/2509 23003MPS 9999 SCT020 
     TEMPO 2409/2415 20003MPS
       
UHHH 241100Z 06006MPS CAVOK 07/04 Q1015 R05R/090060 NOSIG RMK QFE755/1007
TAF AMD UHHH 240833Z 2409/2515 07003MPS 9999 SCT020CB 
     FM241500 05006MPS 2000 SHRA BR BKN006 BKN015CB 
     TEMPO 2415/2503 07011MPS 
     BECMG 2503/2504 5000 -SHRA SCT008 SCT020CB 
     FM250900 13003MPS 9999 SCT020CB
       
UWOO 241100Z 16005MPS 9999 SCT040CB 17/05 Q1002 WS R08 R08/190057 NOSIG RMK QFE741/0989
TAF UWOO 240800Z 2409/2509 14009G15MPS 9999 BKN010 SCT015CB TX15/2413Z TN05/2501Z 
     TEMPO 2409/2415 17012G17MPS 3100 -SHRA BR BKN007 BKN015CB 
     BECMG 2415/2417 22007G12MPS 
     TEMPO 2418/2506 23003G09MPS 2100 -SHRA BR BKN007 SCT015CB 
     BECMG 2506/2507 25006MPS
       
UWOR 241100Z 16017G22MPS CAVOK 20/01 Q1006 R25/CLRD65 NOSIG RMK QFE731/0975
TAF UWOR 241100Z 2412/2421 17011G16MPS 9999 BKN020CB 
     TEMPO 2411/2417 14017G23MPS
       
URKK 241100Z 21010MPS 9999 BKN022CB 09/07 Q1013 R23C/290050 TEMPO 21012G18MPS 1000 TSRA SCT007 BKN020CB RMK QFE757
TAF URKK 240755Z 2409/2509 21012G20MPS 9999 SCT020CB 
     TEMPO 2409/2416 26010G16MPS 3100 -TSRA BKN011 BKN020CB 
     BECMG 2416/2418 26008G16MPS
       
ULOO 241100Z 27008MPS P5000 -SHRA BKN017CB BKN042 04/00 Q1009 R19/190060 NOSIG RMK QFE753
TAF ULOO 241100Z 2412/2421 22003G08MPS 6000 BKN015 BKN025 
     TEMPO 2412/2418 25007G12MPS 1200 -SHSNRA BR BKN005 BKN015CB 
     TEMPO 2418/2421 1200 -SHSN BR BKN005 BKN015CB
       
ULLI 241100Z 27002MPS 240V300 4800 1400NW SHRASN SCT003 BKN014CB OVC033 01/00 Q1008 R88/290050 NOSIG RMK QBB110 OBST OBSC
TAF ULLI 240801Z 2409/2509 21003G08MPS 6000 BKN007 BKN017 
     TEMPO 2409/2418 16003MPS 1500 -SHRASN BR BKN005 BKN017CB 
     TEMPO 2418/2509 VRB01MPS 1000 -SHSNRA BR BKN003 BKN015CB
       
USTR 241100Z 25006MPS CAVOK 14/M04 Q1015 R21/CLRD65 NOSIG RMK QFE752/1003
TAF USTR 240752Z 2409/2509 24005G10MPS 9999 SCT020CB 
     BECMG 2411/2412 19005G10MPS 
     FM241500 16005G10MPS 9999 BKN011 BKN015CB 
     TEMPO 2415/2509 18012MPS 3100 -SHRA
       
URRR 241100Z 22005G10MPS 180V280 4100 -SHRA FEW009 BKN///CB 08/06 Q1010 R22/290050 TEMPO 20007G14MPS 1000 SHRA SCT004 BKN020CB RMK QFE749/0999
TAF URRR 240758Z 2409/2509 28005G11MPS 9999 SCT011 SCT020CB 
     TEMPO 2409/2506 24008G14MPS 3100 -SHRA BR SCT005 BKN020CB 
     PROB40 
     TEMPO 2409/2506 -TSRA
       
UUEE 241100Z 28008MPS 9999 BKN012CB 05/00 Q1007 R24R/CLRD62 R24L/CLRD62 NOSIG
TAF UUEE 240754Z 2409/2509 30005MPS 9999 BKN015 TX08/2412Z TNM01/2502Z 
     TEMPO 2409/2418 -SHRA BKN011 SCT015CB 
     BECMG 2501/2505 23005MPS
       
URMT 241100Z 31009MPS 9999 BKN026CB 13/03 Q1011 R25/010070 NOSIG RMK QFE720
TAF URMT 241100Z 2412/2421 28009G15MPS 9999 BKN020CB 
     TEMPO 2412/2418 31013G19MPS 3100 -SHRA SCT011 BKN020CB
       
URSS 241100Z 17005MPS 9999 -SHRA SCT020CB OVC060 09/06 Q1020 WS ALL RWY R02/290055 R06/290055 NOSIG RMK R06/16005G08MPS MT OBSC QFE764
TAF URSS 240756Z 2409/2509 14007G12MPS 9999 BKN020CB OVC100 
     TEMPO 2409/2411 VRB09G14MPS 2100 -TSRA BKN006 BKN020CB OVC100 
     BECMG 2411/2413 24008G13MPS 
     TEMPO 2411/2415 VRB09G14MPS 2100 -TSRA BKN006 BKN020CB OVC100 
     BECMG 2415/2417 05006MPS 
     TEMPO 2415/2424 VRB07G12MPS 2100 -TSRA BKN006 BKN020CB OVC100
       
UHMM 241100Z 30001MPS 9999 NSC 00/M06 Q1018 RMK QFE749
TAF UHMM 240750Z 2409/2515 23003MPS 9999 NSC
       
UWGG 241100Z 36003MPS 310V040 9999 SCT033 09/M02 Q1005 R36L/090060 NOSIG RMK QFE747
TAF UWGG 240755Z 2409/2509 01003MPS 4000 -SHRA BKN011 SCT020CB TX10/2412Z TN01/2503Z 
     TEMPO 2409/2418 04005G10MPS
       
USRR 241100Z 23003MPS 7000 NSC 08/M02 Q1012 R25/CLRD60 NOSIG RMK QFE753
TAF AMD USRR 240950Z 2410/2509 23003MPS 9999 SCT020 
     TEMPO 2410/2418 23005G10MPS 4000 -SHRA SCT007 BKN015CB
       
UUYY 241100Z 19002MPS 160V230 9999 SCT026CB 05/01 Q1007 R19/29//51 NOSIG RMK QFE747/0996
TAF UUYY 240800Z 2409/2509 23003MPS 9999 BKN011 BKN015CB 
     TEMPO 2409/2412 25006MPS 1000 SHRASN BKN004 BKN011CB 
     TEMPO 2412/2418 3100 -SHRASN SCT005 BKN011CB 
     FM241800 02003MPS 3100 -SHSN BR SCT005 BKN011CB 
     TEMPO 2418/2503 0300 FZFG VV002 
     TEMPO 2506/2509 01006G12MPS
       
ULAA 241100Z 30004MPS 180V330 CAVOK 02/M07 Q1010 R26/CLRD70 NOSIG RMK QFE756/1008
TAF ULAA 240800Z 2409/2509 33005MPS 9999 SCT015 
     TEMPO 2409/2416 01004G09MPS BKN015 
     TEMPO 2416/2420 06003MPS 1000 BR SCT003 
     TEMPO 2420/2505 VRB01MPS 0500 FZFG BKN002
       
UEEE 241100Z 28001MPS CAVOK 05/M05 Q1023 R23L/09//60 NOSIG RMK QFE758
TAF UEEE 240800Z 2409/2515 30003G08MPS 9999 SCT030CB BKN070 
     TEMPO 2509/2515 3200 -SHRASN SCT007 BKN020CB OVC070
       
UNNT 241100Z 24006MPS 9999 SCT033CB 10/04 Q1017 R25/290160 R34/290160 NOSIG RMK QFE753/1004
TAF UNNT 240800Z 2409/2509 24006G12MPS 9999 BKN015CB 
     TEMPO 2409/2415 28010G17MPS 3000 -SHRA BKN010CB 
     FM241800 VRB01MPS 4000 BR SCT015 
     TEMPO 2418/2505 0600 FG SCT005 
     FM250500 17003G08MPS CAVOK
       
UNOO 241100Z 28006MPS 9999 BKN033CB 13/01 Q1019 R25/CLRD60 NOSIG RMK QFE756
TAF UNOO 240758Z 2409/2509 28007G12MPS 6000 BKN030CB 
     BECMG 2414/2416 18003MPS NSC 
     BECMG 2504/2506 17008MPS
       
UWSS 241100Z 31010G15MPS 9999 -RA OVC015 05/03 Q0996 R30/290355 NOSIG RMK QFE734
TAF UWSS 241100Z 2412/2421 30012MPS 9999 -RA OVC011 
     TEMPO 2412/2421 32015MPS 2100 -SHRA BR OVC007 BKN020CB
       
UUDL 241100Z 34002MPS 300V010 9999 BKN054CB 08/M02 Q1006 R23/290250 NOSIG RMK QFE746
TAF UUDL 240800Z 2409/2509 35003MPS 9999 BKN011 BKN020 
     TEMPO 2409/2418 2500 -SHRA BKN016CB
       
UWUU 241100Z 08004MPS 050V120 4000 -RA OVC014 08/07 Q1004 R14R/290244 TEMPO 1000 SHRA BR BKN004CB RMK QFE743/0991
TAF UWUU 240752Z 2409/2509 13006G12MPS 4000 -RA BR OVC011 
     TEMPO 2409/2420 08005G10MPS 1000 RA BKN005 
     FM242000 18006G12MPS 6000 OVC020 
     TEMPO 2420/2503 23006G12MPS 2100 -SHRA BR BKN007CB
       
UHMA 240800Z 34006MPS CAVOK M05/M07 Q1014 RMK QFE757/1009
TAF UHMA 240753Z 2409/2509 36008MPS 9999 SCT033 
     TEMPO 2418/2509 03010MPS SCT010 BKN030
       
URML 241100Z 27004MPS 230V310 9999 NSC 16/05 Q1013 R32/01//70 NOSIG RMK QFE759/1012
TAF URML 241100Z 2412/2421 26003G10MPS 9999 BKN017 SCT030CB 
     PROB40 
     TEMPO 2412/2418 VRB05G12MPS 5000 -SHRA BKN017CB
       
URKA 241100Z 28009MPS 9999 FEW/// BKN022CB 09/05 Q1016 R22/290160 TEMPO 2000 SHRA BKN005 BKN020CB RMK QFE757/1009
TAF URKA 240758Z 2409/2509 26008G14MPS 9999 SCT020CB 
     TEMPO 2409/2415 31008G18MPS 3100 -SHRA BKN011 BKN020CB
       
UUWW 241100Z 32005MPS 9999 SCT041CB 08/M00 Q1006 R24/000070 NOSIG
TAF UUWW 240750Z 2409/2509 29006MPS 9999 BKN020 TX08/2411Z TNM01/2503Z 
     TEMPO 2409/2418 -SHRA SCT007 SCT015CB 
     PROB40 
     TEMPO 2410/2416 -TSRA BKN012CB 
     BECMG 2500/2502 23007MPS
       
UWLW 241100Z 36005MPS 5000 -RA OVC008 05/05 Q0997 R02/290250 NOSIG RMK QFE741
TAF UWLW 240745Z 2409/2509 01006MPS 3100 -SHRA BR OVC007 BKN015CB 
     TEMPO 2409/2415 06011MPS 0500 SHRA FG OVC003 BKN013CB 
     BECMG 2415/2416 27006MPS 
     TEMPO 2416/2509 30003G08MPS 1500 SHRA BR OVC005
       
UEEE 241100Z 28001MPS CAVOK 05/M05 Q1023 R23L/09//60 NOSIG RMK QFE758
TAF UEEE 240800Z 2409/2515 30003G08MPS 9999 SCT030CB BKN070 
     TEMPO 2509/2515 3200 -SHRASN SCT007 BKN020CB OVC070
       
UHPP 241100Z VRB01MPS 9999 NSC 03/M04 Q1013 R34L/CLRD70 NOSIG RMK QFE756/1009
TAF UHPP 240746Z 2409/2515 18003G08MPS 9999 BKN030CB 
     FM241100 36003G10MPS 9999 SCT040CB 
     TEMPO 2500/2510 17003G10MPS